sensor_id;sensor_type;location;lat;lon;timestamp;pressure;altitude;pressure_sealevel;temperature;humidity
42945;BME280;28584;42.636;23.294;2022-07-06T00:00:49;75276.19;;;16.46;100.00
42945;BME280;28584;42.636;23.294;2022-07-06T00:03:15;75344.03;;;16.36;100.00
42945;BME280;28584;42.636;23.294;2022-07-06T00:05:40;75486.25;;;16.33;100.00
42945;BME280;28584;42.636;23.294;2022-07-06T00:08:05;75631.28;;;16.35;100.00
42945;BME280;28584;42.636;23.294;2022-07-06T00:10:31;75912.84;;;16.41;100.00
42945;BME280;28584;42.636;23.294;2022-07-06T00:12:56;76313.38;;;16.51;100.00
42945;BME280;28584;42.636;23.294;2022-07-06T00:15:22;76719.31;;;16.62;100.00
42945;BME280;28584;42.636;23.294;2022-07-06T00:17:47;78218.47;;;16.67;100.00
42945;BME280;28584;42.636;23.294;2022-07-06T00:20:13;82358.97;;;16.66;100.00
42945;BME280;28584;42.636;23.294;2022-07-06T00:22:38;86697.09;;;16.71;100.00
42945;BME280;28584;42.636;23.294;2022-07-06T00:25:04;88428.59;;;16.73;100.00
42945;BME280;28584;42.636;23.294;2022-07-06T00:27:29;89301.94;;;16.79;100.00
42945;BME280;28584;42.636;23.294;2022-07-06T00:29:55;90316.25;;;16.85;100.00
42945;BME280;28584;42.636;23.294;2022-07-06T00:32:20;90837.66;;;16.91;100.00
42945;BME280;28584;42.636;23.294;2022-07-06T00:34:46;91722.91;;;16.95;100.00
42945;BME280;28584;42.636;23.294;2022-07-06T00:37:11;91594.81;;;16.96;100.00
42945;BME280;28584;42.636;23.294;2022-07-06T00:39:37;92329.97;;;16.99;100.00
42945;BME280;28584;42.636;23.294;2022-07-06T00:42:02;91472.72;;;17.01;100.00
42945;BME280;28584;42.636;23.294;2022-07-06T00:44:28;91026.50;;;17.05;100.00
42945;BME280;28584;42.636;23.294;2022-07-06T00:46:54;91070.22;;;17.01;100.00
42945;BME280;28584;42.636;23.294;2022-07-06T00:49:19;91269.53;;;16.96;100.00
42945;BME280;28584;42.636;23.294;2022-07-06T00:52:03;91256.59;;;16.91;100.00
42945;BME280;28584;42.636;23.294;2022-07-06T00:54:31;91491.94;;;16.88;100.00
42945;BME280;28584;42.636;23.294;2022-07-06T00:56:58;91424.50;;;16.89;100.00
42945;BME280;28584;42.636;23.294;2022-07-06T00:59:24;91511.91;;;16.94;100.00
42945;BME280;28584;42.636;23.294;2022-07-06T01:01:50;91340.81;;;17.05;100.00
42945;BME280;28584;42.636;23.294;2022-07-06T01:04:15;91737.84;;;17.05;100.00
42945;BME280;28584;42.636;23.294;2022-07-06T01:06:41;92037.16;;;17.06;100.00
42945;BME280;28584;42.636;23.294;2022-07-06T01:09:06;91968.94;;;17.12;100.00
42945;BME280;28584;42.636;23.294;2022-07-06T01:11:32;92215.16;;;17.12;100.00
42945;BME280;28584;42.636;23.294;2022-07-06T01:14:00;91974.44;;;17.12;100.00
42945;BME280;28584;42.636;23.294;2022-07-06T01:16:25;91995.00;;;17.11;100.00
42945;BME280;28584;42.636;23.294;2022-07-06T01:18:51;92252.50;;;17.08;100.00
42945;BME280;28584;42.636;23.294;2022-07-06T01:21:16;92222.22;;;16.97;100.00
42945;BME280;28584;42.636;23.294;2022-07-06T01:23:46;92212.22;;;16.88;100.00
42945;BME280;28584;42.636;23.294;2022-07-06T01:26:13;92640.53;;;16.80;100.00
42945;BME280;28584;42.636;23.294;2022-07-06T01:28:40;92604.88;;;16.65;100.00
42945;BME280;28584;42.636;23.294;2022-07-06T01:31:13;91801.91;;;16.63;100.00
42945;BME280;28584;42.636;23.294;2022-07-06T01:33:39;91497.66;;;16.53;100.00
42945;BME280;28584;42.636;23.294;2022-07-06T01:36:05;91363.28;;;16.46;100.00
42945;BME280;28584;42.636;23.294;2022-07-06T01:38:30;91368.09;;;16.39;100.00
42945;BME280;28584;42.636;23.294;2022-07-06T01:40:55;91855.41;;;16.32;100.00
42945;BME280;28584;42.636;23.294;2022-07-06T01:43:21;92058.00;;;16.27;100.00
42945;BME280;28584;42.636;23.294;2022-07-06T01:45:46;92056.25;;;16.24;100.00
42945;BME280;28584;42.636;23.294;2022-07-06T01:48:12;92527.44;;;16.15;100.00
42945;BME280;28584;42.636;23.294;2022-07-06T01:50:37;92258.53;;;16.12;100.00
42945;BME280;28584;42.636;23.294;2022-07-06T01:53:03;92302.59;;;16.07;100.00
42945;BME280;28584;42.636;23.294;2022-07-06T01:55:28;92429.50;;;16.03;100.00
42945;BME280;28584;42.636;23.294;2022-07-06T01:57:53;92434.78;;;16.07;100.00
42945;BME280;28584;42.636;23.294;2022-07-06T02:00:19;93129.50;;;16.07;100.00
42945;BME280;28584;42.636;23.294;2022-07-06T02:02:44;94969.81;;;16.07;100.00
42945;BME280;28584;42.636;23.294;2022-07-06T02:05:10;94116.22;;;16.02;100.00
42945;BME280;28584;42.636;23.294;2022-07-06T02:07:35;94847.19;;;15.99;100.00
42945;BME280;28584;42.636;23.294;2022-07-06T02:10:00;95518.09;;;15.91;100.00
42945;BME280;28584;42.636;23.294;2022-07-06T02:12:26;95951.53;;;15.88;100.00
42945;BME280;28584;42.636;23.294;2022-07-06T02:14:51;95646.50;;;15.85;100.00
42945;BME280;28584;42.636;23.294;2022-07-06T02:17:17;95745.69;;;15.85;100.00
42945;BME280;28584;42.636;23.294;2022-07-06T02:19:42;95755.16;;;15.84;100.00
42945;BME280;28584;42.636;23.294;2022-07-06T02:22:08;96539.31;;;15.85;100.00
42945;BME280;28584;42.636;23.294;2022-07-06T02:24:33;96921.59;;;15.81;100.00
42945;BME280;28584;42.636;23.294;2022-07-06T02:26:58;98122.72;;;15.84;100.00
42945;BME280;28584;42.636;23.294;2022-07-06T02:29:24;98075.84;;;15.84;100.00
42945;BME280;28584;42.636;23.294;2022-07-06T02:31:51;97964.41;;;15.85;100.00
42945;BME280;28584;42.636;23.294;2022-07-06T02:34:16;98205.44;;;15.84;100.00
42945;BME280;28584;42.636;23.294;2022-07-06T02:36:42;98579.97;;;15.94;100.00
42945;BME280;28584;42.636;23.294;2022-07-06T02:39:07;99398.19;;;16.07;100.00
42945;BME280;28584;42.636;23.294;2022-07-06T02:41:33;98929.88;;;16.16;100.00
42945;BME280;28584;42.636;23.294;2022-07-06T02:43:58;97206.63;;;16.17;100.00
42945;BME280;28584;42.636;23.294;2022-07-06T02:46:23;99289.59;;;16.12;100.00
42945;BME280;28584;42.636;23.294;2022-07-06T02:48:49;98641.09;;;16.08;100.00
42945;BME280;28584;42.636;23.294;2022-07-06T02:51:14;97588.94;;;16.02;100.00
42945;BME280;28584;42.636;23.294;2022-07-06T02:53:40;94776.78;;;16.11;100.00
42945;BME280;28584;42.636;23.294;2022-07-06T02:56:05;91784.72;;;16.10;100.00
42945;BME280;28584;42.636;23.294;2022-07-06T02:58:31;84758.72;;;16.13;100.00
42945;BME280;28584;42.636;23.294;2022-07-06T03:00:56;81854.09;;;16.14;100.00
42945;BME280;28584;42.636;23.294;2022-07-06T03:03:22;78950.03;;;16.20;100.00
42945;BME280;28584;42.636;23.294;2022-07-06T03:05:47;77661.69;;;16.19;100.00
42945;BME280;28584;42.636;23.294;2022-07-06T03:08:13;76865.88;;;16.18;100.00
42945;BME280;28584;42.636;23.294;2022-07-06T03:10:39;76629.81;;;16.31;100.00
42945;BME280;28584;42.636;23.294;2022-07-06T03:13:04;76302.81;;;16.26;100.00
42945;BME280;28584;42.636;23.294;2022-07-06T03:15:30;76149.81;;;16.22;100.00
42945;BME280;28584;42.636;23.294;2022-07-06T03:17:55;75978.34;;;16.23;100.00
42945;BME280;28584;42.636;23.294;2022-07-06T03:20:20;75822.38;;;16.21;100.00
42945;BME280;28584;42.636;23.294;2022-07-06T03:22:46;76249.31;;;16.48;100.00
42945;BME280;28584;42.636;23.294;2022-07-06T03:25:11;77204.16;;;16.57;100.00
42945;BME280;28584;42.636;23.294;2022-07-06T03:27:37;77989.38;;;16.53;100.00
42945;BME280;28584;42.636;23.294;2022-07-06T03:30:03;77831.69;;;16.45;100.00
42945;BME280;28584;42.636;23.294;2022-07-06T03:32:28;77493.59;;;16.44;100.00
42945;BME280;28584;42.636;23.294;2022-07-06T03:34:54;77581.81;;;16.47;100.00
42945;BME280;28584;42.636;23.294;2022-07-06T03:37:19;77329.19;;;16.49;100.00
42945;BME280;28584;42.636;23.294;2022-07-06T03:39:45;77952.84;;;16.48;100.00
42945;BME280;28584;42.636;23.294;2022-07-06T03:42:10;79604.91;;;16.58;100.00
42945;BME280;28584;42.636;23.294;2022-07-06T03:44:36;82823.09;;;16.78;100.00
42945;BME280;28584;42.636;23.294;2022-07-06T03:47:01;87438.53;;;16.95;100.00
42945;BME280;28584;42.636;23.294;2022-07-06T03:49:27;89932.38;;;17.07;100.00
42945;BME280;28584;42.636;23.294;2022-07-06T03:51:53;93006.97;;;17.29;100.00
42945;BME280;28584;42.636;23.294;2022-07-06T03:54:19;95835.66;;;17.35;100.00
42945;BME280;28584;42.636;23.294;2022-07-06T03:56:44;98689.97;;;17.47;100.00
42945;BME280;28584;42.636;23.294;2022-07-06T03:59:10;103382.94;;;17.66;100.00
42945;BME280;28584;42.636;23.294;2022-07-06T04:01:35;105625.63;;;17.83;100.00
42945;BME280;28584;42.636;23.294;2022-07-06T04:04:01;111820.34;;;18.01;100.00
42945;BME280;28584;42.636;23.294;2022-07-06T04:06:26;124384.81;;;18.12;100.00
42945;BME280;28584;42.636;23.294;2022-07-06T04:08:52;135325.22;;;18.22;100.00
42945;BME280;28584;42.636;23.294;2022-07-06T04:11:17;149654.75;;;18.38;100.00
42945;BME280;28584;42.636;23.294;2022-07-06T04:13:43;159167.06;;;18.42;100.00
42945;BME280;28584;42.636;23.294;2022-07-06T04:16:08;163508.38;;;18.57;100.00
42945;BME280;28584;42.636;23.294;2022-07-06T04:18:34;163500.28;;;18.54;100.00
42945;BME280;28584;42.636;23.294;2022-07-06T04:20:59;163558.09;;;18.75;100.00
42945;BME280;28584;42.636;23.294;2022-07-06T04:23:25;163593.00;;;18.88;100.00
42945;BME280;28584;42.636;23.294;2022-07-06T04:25:51;163613.19;;;18.96;100.00
42945;BME280;28584;42.636;23.294;2022-07-06T04:28:16;163621.25;;;18.99;100.00
42945;BME280;28584;42.636;23.294;2022-07-06T04:30:42;163630.63;;;19.02;100.00
42945;BME280;28584;42.636;23.294;2022-07-06T04:33:07;163664.28;;;19.15;100.00
42945;BME280;28584;42.636;23.294;2022-07-06T04:35:33;163683.13;;;19.22;100.00
42945;BME280;28584;42.636;23.294;2022-07-06T04:37:58;163649.47;;;19.09;100.00
42945;BME280;28584;42.636;23.294;2022-07-06T04:40:24;163704.66;;;19.30;100.00
42945;BME280;28584;42.636;23.294;2022-07-06T04:42:49;163784.00;;;19.60;100.00
42945;BME280;28584;42.636;23.294;2022-07-06T04:45:15;163743.66;;;19.45;100.00
42945;BME280;28584;42.636;23.294;2022-07-06T04:47:40;163640.06;;;19.06;100.00
42945;BME280;28584;42.636;23.294;2022-07-06T04:50:06;163496.25;;;18.52;100.00
42945;BME280;28584;42.636;23.294;2022-07-06T04:52:32;163488.19;;;18.49;100.00
42945;BME280;28584;42.636;23.294;2022-07-06T04:54:57;163473.41;;;18.44;100.00
42945;BME280;28584;42.636;23.294;2022-07-06T04:57:23;163371.25;;;18.06;100.00
42945;BME280;28584;42.636;23.294;2022-07-06T04:59:51;152667.50;;;17.82;100.00
42945;BME280;28584;42.636;23.294;2022-07-06T05:02:16;128163.09;;;17.66;100.00
42945;BME280;28584;42.636;23.294;2022-07-06T05:04:42;121460.56;;;17.56;100.00
42945;BME280;28584;42.636;23.294;2022-07-06T05:07:07;110894.25;;;17.63;100.00
42945;BME280;28584;42.636;23.294;2022-07-06T05:09:33;108146.47;;;17.58;100.00
42945;BME280;28584;42.636;23.294;2022-07-06T05:11:58;105101.59;;;17.57;100.00
42945;BME280;28584;42.636;23.294;2022-07-06T05:14:23;102922.44;;;17.65;100.00
42945;BME280;28584;42.636;23.294;2022-07-06T05:16:49;109315.41;;;17.65;100.00
42945;BME280;28584;42.636;23.294;2022-07-06T05:19:14;115713.19;;;17.80;100.00
42945;BME280;28584;42.636;23.294;2022-07-06T05:21:40;128646.03;;;17.98;100.00
42945;BME280;28584;42.636;23.294;2022-07-06T05:24:05;155318.81;;;18.46;100.00
42945;BME280;28584;42.636;23.294;2022-07-06T05:26:31;163546.00;;;18.71;100.00
42945;BME280;28584;42.636;23.294;2022-07-06T05:28:56;163611.81;;;18.95;100.00
42945;BME280;28584;42.636;23.294;2022-07-06T05:31:22;163637.41;;;19.05;100.00
42945;BME280;28584;42.636;23.294;2022-07-06T05:33:47;163579.59;;;18.83;100.00
42945;BME280;28584;42.636;23.294;2022-07-06T05:36:13;163558.09;;;18.75;100.00
42945;BME280;28584;42.636;23.294;2022-07-06T05:38:38;163603.81;;;18.92;100.00
42945;BME280;28584;42.636;23.294;2022-07-06T05:41:04;163641.44;;;19.07;100.00
42945;BME280;28584;42.636;23.294;2022-07-06T05:43:29;163685.78;;;19.23;100.00
42945;BME280;28584;42.636;23.294;2022-07-06T05:45:54;163763.81;;;19.52;100.00
42945;BME280;28584;42.636;23.294;2022-07-06T05:48:20;163960.22;;;20.25;100.00
42945;BME280;28584;42.636;23.294;2022-07-06T05:51:04;163976.38;;;20.31;100.00
42945;BME280;28584;42.636;23.294;2022-07-06T05:53:30;163969.66;;;20.29;100.00
42945;BME280;28584;42.636;23.294;2022-07-06T05:55:55;163860.66;;;19.88;100.00
42945;BME280;28584;42.636;23.294;2022-07-06T05:58:21;163823.00;;;19.74;100.00
42945;BME280;28584;42.636;23.294;2022-07-06T06:00:46;163868.75;;;19.91;100.00
42945;BME280;28584;42.636;23.294;2022-07-06T06:03:12;163781.31;;;19.59;100.00
42945;BME280;28584;42.636;23.294;2022-07-06T06:05:37;163726.16;;;19.38;100.00
42945;BME280;28584;42.636;23.294;2022-07-06T06:08:03;163719.44;;;19.36;100.00
42945;BME280;28584;42.636;23.294;2022-07-06T06:10:29;163664.28;;;19.15;100.00
42945;BME280;28584;42.636;23.294;2022-07-06T06:12:54;163719.44;;;19.36;100.00
42945;BME280;28584;42.636;23.294;2022-07-06T06:15:20;163923.91;;;20.12;100.00
42945;BME280;28584;42.636;23.294;2022-07-06T06:17:45;164053.09;;;20.60;100.00
42945;BME280;28584;42.636;23.294;2022-07-06T06:20:12;164209.28;;;21.18;100.00
42945;BME280;28584;42.636;23.294;2022-07-06T06:22:48;164245.63;;;21.31;100.00
42945;BME280;28584;42.636;23.294;2022-07-06T06:25:18;164207.91;;;21.17;100.00
42945;BME280;28584;42.636;23.294;2022-07-06T06:27:44;164113.66;;;20.82;100.00
42945;BME280;28584;42.636;23.294;2022-07-06T06:30:10;164057.13;;;20.61;100.00
42945;BME280;28584;42.636;23.294;2022-07-06T06:32:36;164014.06;;;20.45;100.00
42945;BME280;28584;42.636;23.294;2022-07-06T06:35:01;164036.94;;;20.54;100.00
42945;BME280;28584;42.636;23.294;2022-07-06T06:37:27;163962.94;;;20.26;100.00
42945;BME280;28584;42.636;23.294;2022-07-06T06:39:52;163927.97;;;20.13;100.00
42945;BME280;28584;42.636;23.294;2022-07-06T06:42:18;163887.56;;;19.98;100.00
42945;BME280;28584;42.636;23.294;2022-07-06T06:44:43;163816.25;;;19.72;100.00
42945;BME280;28584;42.636;23.294;2022-07-06T06:47:09;163669.63;;;19.17;100.00
42945;BME280;28584;42.636;23.294;2022-07-06T06:49:34;163681.75;;;19.22;100.00
42945;BME280;28584;42.636;23.294;2022-07-06T06:51:59;163688.47;;;19.24;100.00
42945;BME280;28584;42.636;23.294;2022-07-06T06:54:25;163771.88;;;19.55;100.00
42945;BME280;28584;42.636;23.294;2022-07-06T06:56:50;163804.19;;;19.67;100.00
42945;BME280;28584;42.636;23.294;2022-07-06T06:59:16;163812.22;;;19.70;100.00
42945;BME280;28584;42.636;23.294;2022-07-06T07:01:41;163902.38;;;20.04;100.00
42945;BME280;28584;42.636;23.294;2022-07-06T07:04:07;163875.47;;;19.94;100.00
42945;BME280;28584;42.636;23.294;2022-07-06T07:06:33;163910.38;;;20.07;100.00
42945;BME280;28584;42.636;23.294;2022-07-06T07:08:58;163792.06;;;19.63;100.00
42945;BME280;28584;42.636;23.294;2022-07-06T07:11:24;163742.31;;;19.44;100.00
42945;BME280;28584;42.636;23.294;2022-07-06T07:13:49;163833.75;;;19.78;100.00
42945;BME280;28584;42.636;23.294;2022-07-06T07:16:15;163788.03;;;19.61;100.00
42945;BME280;28584;42.636;23.294;2022-07-06T07:18:40;163734.22;;;19.41;100.00
42945;BME280;28584;42.636;23.294;2022-07-06T07:21:06;163701.97;;;19.29;100.00
42945;BME280;28584;42.636;23.294;2022-07-06T07:23:31;163755.72;;;19.49;100.00
42945;BME280;28584;42.636;23.294;2022-07-06T07:25:56;163802.81;;;19.67;100.00
42945;BME280;28584;42.636;23.294;2022-07-06T07:28:22;163805.50;;;19.68;100.00
42945;BME280;28584;42.636;23.294;2022-07-06T07:30:47;163857.94;;;19.87;100.00
42945;BME280;28584;42.636;23.294;2022-07-06T07:33:13;163894.28;;;20.01;100.00
42945;BME280;28584;42.636;23.294;2022-07-06T07:35:39;163820.28;;;19.73;100.00
42945;BME280;28584;42.636;23.294;2022-07-06T07:38:04;163863.34;;;19.89;100.00
42945;BME280;28584;42.636;23.294;2022-07-06T07:40:30;164027.53;;;20.50;100.00
42945;BME280;28584;42.636;23.294;2022-07-06T07:42:55;164124.41;;;20.86;100.00
42945;BME280;28584;42.636;23.294;2022-07-06T07:45:21;164139.22;;;20.92;100.00
42945;BME280;28584;42.636;23.294;2022-07-06T07:47:46;164051.72;;;20.59;100.00
42945;BME280;28584;42.636;23.294;2022-07-06T07:50:12;164054.41;;;20.60;100.00
42945;BME280;28584;42.636;23.294;2022-07-06T07:52:37;163949.47;;;20.21;100.00
42945;BME280;28584;42.636;23.294;2022-07-06T07:55:04;164008.69;;;20.43;100.00
42945;BME280;28584;42.636;23.294;2022-07-06T07:57:29;163980.41;;;20.33;100.00
42945;BME280;28584;42.636;23.294;2022-07-06T07:59:55;164088.09;;;20.73;100.00
42945;BME280;28584;42.636;23.294;2022-07-06T08:02:20;164264.47;;;21.38;100.00
42945;BME280;28584;42.636;23.294;2022-07-06T08:04:46;164431.50;;;22.01;100.00
42945;BME280;28584;42.636;23.294;2022-07-06T08:07:11;164558.16;;;22.48;100.00
42945;BME280;28584;42.636;23.294;2022-07-06T08:09:36;164680.78;;;22.93;100.00
42945;BME280;28584;42.636;23.294;2022-07-06T08:12:02;164667.34;;;22.88;100.00
42945;BME280;28584;42.636;23.294;2022-07-06T08:14:27;164516.38;;;22.32;100.00
42945;BME280;28584;42.636;23.294;2022-07-06T08:16:53;164378.97;;;21.81;100.00
42945;BME280;28584;42.636;23.294;2022-07-06T08:19:18;164505.56;;;22.28;100.00
42945;BME280;28584;42.636;23.294;2022-07-06T08:21:44;164733.34;;;23.13;100.00
42945;BME280;28584;42.636;23.294;2022-07-06T08:24:10;164688.91;;;22.96;100.00
42945;BME280;28584;42.636;23.294;2022-07-06T08:26:36;164923.50;;;23.83;100.00
42945;BME280;28584;42.636;23.294;2022-07-06T08:29:02;165051.69;;;24.31;100.00
42945;BME280;28584;42.636;23.294;2022-07-06T08:31:28;165248.78;;;25.04;100.00
42945;BME280;28584;42.636;23.294;2022-07-06T08:33:53;165321.66;;;25.31;100.00
42945;BME280;28584;42.636;23.294;2022-07-06T08:36:20;165235.25;;;24.99;100.00
42945;BME280;28584;42.636;23.294;2022-07-06T08:38:46;165248.78;;;25.04;98.84
42945;BME280;28584;42.636;23.294;2022-07-06T08:41:13;165413.47;;;25.65;91.32
42945;BME280;28584;42.636;23.294;2022-07-06T08:43:39;165343.31;;;25.39;91.21
42945;BME280;28584;42.636;23.294;2022-07-06T08:46:05;165335.19;;;25.36;93.33
42945;BME280;28584;42.636;23.294;2022-07-06T08:48:35;165498.59;;;25.97;92.52
42945;BME280;28584;42.636;23.294;2022-07-06T08:51:01;165309.50;;;25.27;93.97
42945;BME280;28584;42.636;23.294;2022-07-06T08:53:27;165159.69;;;24.71;100.00
42945;BME280;28584;42.636;23.294;2022-07-06T08:55:53;165184.00;;;24.80;100.00
42945;BME280;28584;42.636;23.294;2022-07-06T08:58:19;164947.81;;;23.92;100.00
42945;BME280;28584;42.636;23.294;2022-07-06T09:00:44;164969.41;;;24.00;100.00
42945;BME280;28584;42.636;23.294;2022-07-06T09:03:12;165027.44;;;24.22;100.00
42945;BME280;28584;42.636;23.294;2022-07-06T09:05:40;165206.94;;;24.89;100.00
42945;BME280;28584;42.636;23.294;2022-07-06T09:08:05;165190.72;;;24.83;100.00
42945;BME280;28584;42.636;23.294;2022-07-06T09:10:31;165281.16;;;25.16;95.64
42945;BME280;28584;42.636;23.294;2022-07-06T09:13:07;165254.16;;;25.06;95.59
42945;BME280;28584;42.636;23.294;2022-07-06T09:15:34;165413.47;;;25.65;89.90
42945;BME280;28584;42.636;23.294;2022-07-06T09:18:01;165653.91;;;26.54;86.01
42945;BME280;28584;42.636;23.294;2022-07-06T09:20:27;165676.94;;;26.63;83.14
42945;BME280;28584;42.636;23.294;2022-07-06T09:23:04;165289.25;;;25.19;95.09
42945;BME280;28584;42.636;23.294;2022-07-06T09:25:30;164916.78;;;23.81;100.00
42945;BME280;28584;42.636;23.294;2022-07-06T09:27:57;164819.72;;;23.45;100.00
42945;BME280;28584;42.636;23.294;2022-07-06T09:30:25;164973.47;;;24.02;100.00
42945;BME280;28584;42.636;23.294;2022-07-06T09:32:54;165217.72;;;24.93;100.00
42945;BME280;28584;42.636;23.294;2022-07-06T09:35:37;165318.97;;;25.30;94.65
42945;BME280;28584;42.636;23.294;2022-07-06T09:40:30;164737.41;;;23.14;100.00
42945;BME280;28584;42.636;23.294;2022-07-06T09:43:19;164732.03;;;23.12;100.00
42945;BME280;28584;42.636;23.294;2022-07-06T09:45:48;164857.47;;;23.59;100.00
42945;BME280;28584;42.636;23.294;2022-07-06T09:48:16;165173.16;;;24.76;100.00
42945;BME280;28584;42.636;23.294;2022-07-06T09:50:45;165066.56;;;24.37;100.00
42945;BME280;28584;42.636;23.294;2022-07-06T09:53:12;165159.69;;;24.71;100.00
42945;BME280;28584;42.636;23.294;2022-07-06T09:55:38;165124.53;;;24.58;100.00
42945;BME280;28584;42.636;23.294;2022-07-06T09:58:07;164876.34;;;23.66;100.00
42945;BME280;28584;42.636;23.294;2022-07-06T10:00:33;164792.75;;;23.35;100.00
42945;BME280;28584;42.636;23.294;2022-07-06T10:03:00;164819.72;;;23.45;100.00
42945;BME280;28584;42.636;23.294;2022-07-06T10:05:26;164746.88;;;23.18;100.00
42945;BME280;28584;42.636;23.294;2022-07-06T10:07:59;164968.06;;;24.00;100.00
42945;BME280;28584;42.636;23.294;2022-07-06T10:10:29;164854.75;;;23.58;100.00
42945;BME280;28584;42.636;23.294;2022-07-06T10:12:58;164903.31;;;23.76;100.00
42945;BME280;28584;42.636;23.294;2022-07-06T10:15:25;164997.78;;;24.11;100.00
42945;BME280;28584;42.636;23.294;2022-07-06T10:17:51;164792.75;;;23.35;100.00
42945;BME280;28584;42.636;23.294;2022-07-06T10:20:18;164833.19;;;23.50;100.00
42945;BME280;28584;42.636;23.294;2022-07-06T10:22:47;164926.19;;;23.84;100.00
42945;BME280;28584;42.636;23.294;2022-07-06T10:25:15;164779.25;;;23.30;100.00
42945;BME280;28584;42.636;23.294;2022-07-06T10:27:42;164968.06;;;24.00;100.00
42945;BME280;28584;42.636;23.294;2022-07-06T10:30:08;165082.72;;;24.43;100.00
42945;BME280;28584;42.636;23.294;2022-07-06T10:32:35;165270.34;;;25.12;96.02
42945;BME280;28584;42.636;23.294;2022-07-06T10:35:01;165167.78;;;24.74;100.00
42945;BME280;28584;42.636;23.294;2022-07-06T10:37:27;165259.56;;;25.08;96.76
42945;BME280;28584;42.636;23.294;2022-07-06T10:39:53;165231.19;;;24.98;100.00
42945;BME280;28584;42.636;23.294;2022-07-06T10:43:08;165313.50;;;25.28;100.00
42945;BME280;28584;42.636;23.294;2022-07-06T10:50:54;164761.75;;;23.23;100.00
42945;BME280;28584;42.636;23.294;2022-07-06T10:53:25;164678.13;;;22.92;100.00
42945;BME280;28584;42.636;23.294;2022-07-06T10:55:53;164754.97;;;23.21;100.00
42945;BME280;28584;42.636;23.294;2022-07-06T10:58:38;164777.94;;;23.29;100.00
42945;BME280;28584;42.636;23.294;2022-07-06T11:01:06;165022.03;;;24.20;100.00
42945;BME280;28584;42.636;23.294;2022-07-06T11:03:39;165121.84;;;24.57;99.33
42945;BME280;28584;42.636;23.294;2022-07-06T11:11:20;165085.47;;;24.44;100.00
42945;BME280;28584;42.636;23.294;2022-07-06T11:13:55;165251.47;;;25.05;100.00
42945;BME280;28584;42.636;23.294;2022-07-06T11:16:25;165128.59;;;24.60;95.70
42945;BME280;28584;42.636;23.294;2022-07-06T11:19:14;165270.34;;;25.12;95.03
42945;BME280;28584;42.636;23.294;2022-07-06T11:24:19;165084.09;;;24.43;94.06
42945;BME280;28584;42.636;23.294;2022-07-06T11:26:47;164980.22;;;24.04;100.00
42945;BME280;28584;42.636;23.294;2022-07-06T11:29:14;165022.03;;;24.20;98.85
42945;BME280;28584;42.636;23.294;2022-07-06T11:31:45;165019.34;;;24.19;100.00
42945;BME280;28584;42.636;23.294;2022-07-06T11:34:18;165065.19;;;24.36;100.00
42945;BME280;28584;42.636;23.294;2022-07-06T11:36:44;165067.88;;;24.37;100.00
42945;BME280;28584;42.636;23.294;2022-07-06T11:39:09;165005.81;;;24.14;100.00
42945;BME280;28584;42.636;23.294;2022-07-06T11:41:35;164912.75;;;23.79;100.00
42945;BME280;28584;42.636;23.294;2022-07-06T11:44:02;165216.34;;;24.92;100.00
42945;BME280;28584;42.636;23.294;2022-07-06T11:46:30;165309.50;;;25.27;84.19
42945;BME280;28584;42.636;23.294;2022-07-06T11:48:57;165327.09;;;25.33;81.36
42945;BME280;28584;42.636;23.294;2022-07-06T11:51:25;165603.94;;;26.36;78.79
42945;BME280;28584;42.636;23.294;2022-07-06T11:53:56;165499.91;;;25.97;70.37
42945;BME280;28584;42.636;23.294;2022-07-06T11:56:25;165774.19;;;26.99;64.77
42945;BME280;28584;42.636;23.294;2022-07-06T11:58:54;165726.94;;;26.82;59.63
42945;BME280;28584;42.636;23.294;2022-07-06T12:01:21;165826.88;;;27.19;60.11
42945;BME280;28584;42.636;23.294;2022-07-06T12:03:48;165672.88;;;26.62;67.11
42945;BME280;28584;42.636;23.294;2022-07-06T12:06:22;165147.53;;;24.67;78.52
42945;BME280;28584;42.636;23.294;2022-07-06T12:08:50;165081.41;;;24.42;88.58
42945;BME280;28584;42.636;23.294;2022-07-06T12:11:20;164858.78;;;23.59;92.70
42945;BME280;28584;42.636;23.294;2022-07-06T12:13:47;164869.56;;;23.63;100.00
42945;BME280;28584;42.636;23.294;2022-07-06T12:16:13;165088.13;;;24.45;92.35
42945;BME280;28584;42.636;23.294;2022-07-06T12:18:41;165278.47;;;25.15;83.08
42945;BME280;28584;42.636;23.294;2022-07-06T12:21:09;165215.00;;;24.92;86.72
42945;BME280;28584;42.636;23.294;2022-07-06T12:23:47;165339.25;;;25.38;85.72
42945;BME280;28584;42.636;23.294;2022-07-06T12:26:14;165003.13;;;24.13;86.32
42945;BME280;28584;42.636;23.294;2022-07-06T12:28:41;164970.78;;;24.01;96.24
42945;BME280;28584;42.636;23.294;2022-07-06T12:31:07;164916.78;;;23.81;99.30
42945;BME280;28584;42.636;23.294;2022-07-06T12:33:33;164817.00;;;23.44;100.00
42945;BME280;28584;42.636;23.294;2022-07-06T12:36:09;164752.22;;;23.20;100.00
42945;BME280;28584;42.636;23.294;2022-07-06T12:38:35;164760.38;;;23.23;100.00
42945;BME280;28584;42.636;23.294;2022-07-06T12:41:08;164776.56;;;23.29;100.00
42945;BME280;28584;42.636;23.294;2022-07-06T12:43:40;164752.22;;;23.20;100.00
42945;BME280;28584;42.636;23.294;2022-07-06T12:46:35;164657.88;;;22.85;100.00
42945;BME280;28584;42.636;23.294;2022-07-06T12:49:03;164763.06;;;23.24;100.00